Impacts TAF Board
For situational awareness. Not to be used for flight planning purposes.
IDs:

KIAH - Houston/Bush Intl, TX, US

Issued at 0106 UTC 07 Jun 2020
Updated at 0232 UTC 07 Jun 2020
Potential Impact None Slight Moderate High
Time0153Z 07/03Z 07/04Z 07/05Z 07/06Z 07/07Z 07/08Z 07/09Z 07/10Z 07/11Z 07/12Z 07/13Z 07/14Z 07/15Z>>
Type OBS PRVL PRVL PRVL PRVL PRVL PRVL PRVL PRVL PRVL PRVL PRVL PRVL PRVL
VIS 10 >6 >6 >6 >6 >6 >6 >6 >6 >6 >6 >6 >6 >6
CIG -- -- -- -- -- -- -- -- -- -- -- -- -- --
Cover SCT SCT SCT SCT SCT SCT SCT SCT SCT SCT SCT SCT SCT SCT
FltCat VFR VFR VFR VFR VFR VFR VFR VFR VFR VFR VFR VFR VFR VFR
WX -- -- -- -- -- -- -- -- -- -- -- -- -- --
WDir 350 30 30 30 30 30 30 30 30 30 30 30 20 20
WSpd 5 7 7 7 7 7 7 7 7 7 7 7 9 9
WGst -- -- -- -- -- -- -- -- -- -- -- -- -- --
R08/26
XWnd 5 6 6 6 6 6 6 6 6 6 6 6 8 8
HWnd -1 4 4 4 4 4 4 4 4 4 4 4 3 3
R09/27
XWnd 5 6 6 6 6 6 6 6 6 6 6 6 8 8
HWnd -1 4 4 4 4 4 4 4 4 4 4 4 3 3
R15/33
XWnd 2 6 6 6 6 6 6 6 6 6 6 6 7 7
HWnd -5 -4 -4 -4 -4 -4 -4 -4 -4 -4 -4 -4 -6 -6
Raw TAF
KIAH 070106Z 0701/0806 03007KT P6SM FEW050 SCT250
  FM071400 02009KT P6SM FEW035 SCT250
  FM072100 01010KT P6SM VCTS BKN060CB
  FM080200 36005KT P6SM FEW060


Raw METAR
KIAH 070153Z 35005KT 10SM FEW050 FEW120 SCT250 29/22 A2977 RMK AO2 SLP079 T02890217
KIAH 070053Z 04007KT 10SM FEW050 SCT120 SCT250 30/21 A2976 RMK AO2 SLP078 TCU DSNT NE T03000211
KIAH 062353Z 03005KT 10SM FEW050 BKN120 BKN250 31/22 A2975 RMK AO2 PK WND 04027/2323 LTG DSNT W RAB26E37 SLP073 CB AND SHRA DSNT SE-S AND SW-W MOV SW P0002 60002 T03110217 10356 20294 55016

METAR Board
Radar Display
Forecast Discussion
For situational awareness. Not to be used for flight planning purposes.